Time;durP1;ratioP1;P1;durP2;ratioP2;P2;SDS_P1;SDS_P2;PMS_P1;PMS_P2;Temp;Humidity;BMP_temperature;BMP_pressure;BME280_temperature;BME280_humidity;BME280_pressure;Samples;Min_cycle;Max_cycle;Signal;HPM_P1;HPM_P2
2022/01/14 00:01:55;;;;;;;13.80;9.27;;;21.20;43.40;;;;;;5067615;28;40460;-59
2022/01/14 00:04:21;;;;;;;14.45;8.80;;;21.20;43.40;;;;;;5068596;28;20133;-60
2022/01/14 00:06:47;;;;;;;15.32;8.80;;;21.20;43.30;;;;;;5071254;28;20048;-60
2022/01/14 00:09:14;;;;;;;12.57;8.65;;;21.20;43.30;;;;;;5070880;28;20043;-60
2022/01/14 00:11:44;;;;;;;11.27;8.35;;;21.10;43.30;;;;;;5072214;28;20045;-58
2022/01/14 00:16:42;;;;;;;15.57;8.45;;;21.10;44.20;;;;;;5068791;28;43092;-58
2022/01/14 00:19:08;;;;;;;15.90;9.05;;;21.10;43.30;;;;;;5068430;28;20032;-59
2022/01/14 00:21:36;;;;;;;15.43;8.75;;;21.10;43.40;;;;;;5074217;28;20410;-60
2022/01/14 00:24:12;;;;;;;14.55;9.13;;;21.00;43.30;;;;;;5069485;28;20070;-60
2022/01/14 00:32:13;;;;;;;14.40;9.23;;;21.00;43.40;;;;;;5069674;28;20073;-59
2022/01/14 00:34:39;;;;;;;17.40;9.20;;;21.00;43.50;;;;;;5069659;28;20195;-60
2022/01/14 00:37:04;;;;;;;15.15;9.20;;;21.00;43.40;;;;;;5068686;28;20990;-59
2022/01/14 00:39:30;;;;;;;15.15;9.43;;;21.00;43.40;;;;;;5068589;28;20072;-59
2022/01/14 00:41:56;;;;;;;15.20;8.70;;;20.90;43.30;;;;;;5071232;28;20045;-59
2022/01/14 00:44:22;;;;;;;13.50;9.15;;;20.90;43.40;;;;;;5068646;28;35176;-60
2022/01/14 00:46:49;;;;;;;12.02;8.43;;;20.90;43.30;;;;;;5068522;28;20598;-60
2022/01/14 00:49:16;;;;;;;14.05;8.77;;;20.90;43.30;;;;;;5067339;28;20427;-59
2022/01/14 00:51:42;;;;;;;15.18;8.90;;;20.90;43.40;;;;;;5069443;28;20099;-60
2022/01/14 00:54:09;;;;;;;17.05;9.63;;;20.90;43.40;;;;;;5071241;28;20045;-60
2022/01/14 00:59:14;;;;;;;16.33;8.88;;;20.90;43.40;;;;;;5068367;28;38410;-60
2022/01/14 01:01:51;;;;;;;19.90;9.52;;;20.90;43.40;;;;;;5070161;28;20440;-60
2022/01/14 01:04:26;;;;;;;17.27;9.35;;;20.90;43.40;;;;;;5069924;28;20064;-60
2022/01/14 01:06:52;;;;;;;19.33;9.10;;;20.80;43.30;;;;;;5067916;28;20081;-58
2022/01/14 01:09:17;;;;;;;17.17;8.45;;;20.80;43.40;;;;;;5069804;28;20053;-60
2022/01/14 01:11:53;;;;;;;14.93;8.85;;;20.80;43.40;;;;;;5065849;28;40852;-60
2022/01/14 01:14:32;;;;;;;12.57;7.68;;;20.80;43.30;;;;;;5069183;28;20124;-60
2022/01/14 01:16:58;;;;;;;14.85;9.25;;;20.80;43.30;;;;;;5067242;28;20051;-59
2022/01/14 01:19:23;;;;;;;20.85;9.65;;;20.80;43.30;;;;;;5071615;28;20036;-59
2022/01/14 01:21:49;;;;;;;13.75;8.90;;;20.80;43.40;;;;;;5067578;28;20501;-59
2022/01/14 01:24:15;;;;;;;13.55;8.63;;;20.70;43.30;;;;;;5071978;28;20070;-60
2022/01/14 01:26:42;;;;;;;14.52;8.90;;;20.70;43.30;;;;;;5064429;28;45209;-60
2022/01/14 01:31:41;;;;;;;13.07;8.68;;;20.70;43.40;;;;;;5069005;28;20040;-60
2022/01/14 01:34:08;;;;;;;13.02;8.68;;;20.70;43.40;;;;;;5067983;28;20441;-60
2022/01/14 01:36:34;;;;;;;17.02;9.48;;;20.70;43.50;;;;;;5068685;28;20052;-60
2022/01/14 01:39:00;;;;;;;12.48;8.40;;;20.70;43.40;;;;;;5068485;28;20033;-59
2022/01/14 01:41:27;;;;;;;13.18;8.18;;;20.60;43.50;;;;;;5066637;28;41022;-59
2022/01/14 01:43:54;;;;;;;15.77;8.45;;;20.60;43.80;;;;;;5072069;28;20475;-59
2022/01/14 01:46:23;;;;;;;12.93;8.88;;;20.60;44.10;;;;;;5067469;28;20043;-60
2022/01/14 01:48:52;;;;;;;11.82;8.55;;;20.60;44.30;;;;;;5069270;28;20044;-60
2022/01/14 01:51:19;;;;;;;13.45;8.55;;;20.60;45.10;;;;;;5069599;28;20071;-59
2022/01/14 01:53:46;;;;;;;13.20;9.18;;;20.60;44.50;;;;;;5066261;28;40192;-59
2022/01/14 01:56:13;;;;;;;13.80;8.80;;;20.60;44.60;;;;;;5068902;28;20048;-60
2022/01/14 01:58:39;;;;;;;13.43;8.70;;;20.60;44.70;;;;;;5068582;28;20040;-60
2022/01/14 02:01:07;;;;;;;13.77;8.68;;;20.60;44.70;;;;;;5069166;28;20037;-59
2022/01/14 02:03:33;;;;;;;14.68;8.63;;;20.60;44.80;;;;;;5068188;28;20074;-60
2022/01/14 02:06:00;;;;;;;13.13;8.80;;;20.50;44.70;;;;;;5067374;28;20052;-60
2022/01/14 02:08:26;;;;;;;10.43;7.75;;;20.60;44.80;;;;;;5064338;28;37935;-60
2022/01/14 02:10:51;;;;;;;11.75;8.40;;;20.60;44.80;;;;;;5069189;28;20048;-60
2022/01/14 02:13:17;;;;;;;11.25;8.55;;;20.50;44.80;;;;;;5069694;28;20044;-59
2022/01/14 02:15:47;;;;;;;11.38;8.20;;;20.60;44.90;;;;;;5069154;28;20036;-60
2022/01/14 02:23:53;;;;;;;13.13;9.07;;;20.50;44.80;;;;;;5067197;28;38270;-60
2022/01/14 02:26:21;;;;;;;11.88;8.07;;;20.50;44.80;;;;;;5068282;28;20027;-59
2022/01/14 02:28:50;;;;;;;11.75;8.07;;;20.50;44.70;;;;;;5070057;28;20043;-59
2022/01/14 02:31:17;;;;;;;12.93;8.65;;;20.50;44.80;;;;;;5067631;28;20144;-59
2022/01/14 02:33:43;;;;;;;13.18;8.90;;;20.50;44.80;;;;;;5067821;28;20072;-59
2022/01/14 02:36:09;;;;;;;11.25;7.90;;;20.50;44.80;;;;;;5063428;28;43212;-59
2022/01/14 02:38:35;;;;;;;11.60;8.60;;;20.50;44.80;;;;;;5069305;28;20040;-59
2022/01/14 02:41:01;;;;;;;9.52;8.07;;;20.40;44.70;;;;;;5065691;28;20064;-60
2022/01/14 02:43:27;;;;;;;11.00;7.95;;;20.40;44.70;;;;;;5068613;28;20183;-59
2022/01/14 02:45:56;;;;;;;11.60;7.93;;;20.40;44.70;;;;;;5069534;28;20041;-59
2022/01/14 02:48:25;;;;;;;11.18;8.30;;;20.40;44.70;;;;;;5067598;28;20068;-59
2022/01/14 02:51:08;;;;;;;10.23;7.65;;;20.40;44.70;;;;;;5061816;28;43116;-58
2022/01/14 02:56:12;;;;;;;9.98;8.18;;;20.40;44.60;;;;;;5068151;28;20040;-59
2022/01/14 02:58:40;;;;;;;9.93;8.02;;;20.40;44.60;;;;;;5067767;28;20059;-60
2022/01/14 03:01:09;;;;;;;11.57;8.25;;;20.40;44.70;;;;;;5060272;28;20047;-60
2022/01/14 03:03:36;;;;;;;13.30;8.73;;;20.40;44.60;;;;;;5064175;28;20060;-59
2022/01/14 03:06:04;;;;;;;10.43;7.80;;;20.40;44.70;;;;;;5062509;28;40566;-59
2022/01/14 03:08:31;;;;;;;12.57;8.68;;;20.40;44.60;;;;;;5066739;28;20041;-58
2022/01/14 03:11:00;;;;;;;11.77;8.18;;;20.30;44.60;;;;;;5064970;28;20063;-60
2022/01/14 03:13:27;;;;;;;11.38;8.07;;;20.30;44.60;;;;;;5067404;28;20035;-60
2022/01/14 03:15:52;;;;;;;9.88;7.95;;;20.30;44.60;;;;;;5065297;28;20032;-59
2022/01/14 03:18:28;;;;;;;12.23;8.30;;;20.30;44.50;;;;;;5061830;28;38250;-59
2022/01/14 03:21:08;;;;;;;10.68;7.90;;;20.30;44.50;;;;;;5063290;28;20052;-60
2022/01/14 03:23:41;;;;;;;11.57;8.43;;;20.30;44.60;;;;;;5066094;28;20156;-59
2022/01/14 03:26:07;;;;;;;11.32;7.90;;;20.30;44.60;;;;;;5069699;28;20127;-60
2022/01/14 03:28:32;;;;;;;9.15;7.38;;;20.30;44.50;;;;;;5065066;28;20924;-60
2022/01/14 03:30:58;;;;;;;11.95;8.05;;;20.30;44.50;;;;;;5068551;28;20052;-60
2022/01/14 03:33:23;;;;;;;11.20;8.07;;;20.30;44.50;;;;;;5062100;28;45416;-60
2022/01/14 03:35:49;;;;;;;10.35;7.72;;;20.30;44.50;;;;;;5068638;28;20024;-58
2022/01/14 03:38:15;;;;;;;10.00;7.85;;;20.20;44.40;;;;;;5063235;28;20032;-59
2022/01/14 03:40:41;;;;;;;11.75;8.05;;;20.20;44.40;;;;;;5068710;28;21102;-60
2022/01/14 03:43:06;;;;;;;10.98;8.20;;;20.20;44.50;;;;;;5065930;28;20246;-59
2022/01/14 03:45:32;;;;;;;9.88;7.65;;;20.20;44.40;;;;;;5070661;28;20687;-59
2022/01/14 03:47:57;;;;;;;9.88;7.97;;;20.20;44.30;;;;;;5061497;28;40516;-59
2022/01/14 03:50:24;;;;;;;10.75;7.95;;;20.20;44.30;;;;;;5066201;28;20036;-59
2022/01/14 03:52:50;;;;;;;11.35;7.65;;;20.20;44.30;;;;;;5064511;28;20068;-60
2022/01/14 03:55:16;;;;;;;10.60;7.70;;;20.20;44.40;;;;;;5069085;28;20598;-60
2022/01/14 03:57:41;;;;;;;10.80;7.72;;;20.20;44.40;;;;;;5065668;28;21060;-59
2022/01/14 04:00:08;;;;;;;9.57;7.70;;;20.20;44.40;;;;;;5065176;28;43140;-60
2022/01/14 04:02:33;;;;;;;9.30;7.63;;;20.20;44.40;;;;;;5066694;28;20158;-60
2022/01/14 04:04:59;;;;;;;10.82;7.45;;;20.20;44.30;;;;;;5063205;28;20047;-58
2022/01/14 04:07:24;;;;;;;10.23;7.40;;;20.20;44.40;;;;;;5063822;28;20052;-60
2022/01/14 04:09:50;;;;;;;10.45;7.55;;;20.20;44.40;;;;;;5068354;28;20036;-59
2022/01/14 04:12:29;;;;;;;10.13;7.93;;;20.10;44.30;;;;;;5067977;28;20033;-59
2022/01/14 04:17:20;;;;;;;10.98;7.90;;;20.10;44.30;;;;;;5066712;28;20037;-60
2022/01/14 04:19:46;;;;;;;10.88;8.50;;;20.10;44.30;;;;;;5065121;28;20036;-60
2022/01/14 04:22:11;;;;;;;10.38;8.02;;;20.10;44.30;;;;;;5065681;28;20072;-59
2022/01/14 04:24:37;;;;;;;10.30;7.50;;;20.10;44.30;;;;;;5068250;28;20043;-59
2022/01/14 04:27:02;;;;;;;8.85;7.47;;;20.10;44.30;;;;;;5067667;28;20040;-60
2022/01/14 04:29:28;;;;;;;10.00;7.15;;;20.10;44.30;;;;;;5065093;28;45416;-60
2022/01/14 04:31:53;;;;;;;10.05;8.10;;;20.10;44.20;;;;;;5069801;28;20071;-60
2022/01/14 04:34:19;;;;;;;9.57;7.75;;;20.10;44.30;;;;;;5068513;28;20078;-60
2022/01/14 04:36:45;;;;;;;10.77;7.88;;;20.00;44.20;;;;;;5069927;28;20110;-59
2022/01/14 04:39:11;;;;;;;9.25;7.65;;;20.00;44.20;;;;;;5067613;28;21890;-60
2022/01/14 04:41:36;;;;;;;9.30;6.85;;;20.00;44.20;;;;;;5070520;28;20041;-59
2022/01/14 04:44:02;;;;;;;8.85;7.40;;;20.00;44.20;;;;;;5070462;28;27722;-59
2022/01/14 04:48:53;;;;;;;9.93;7.50;;;20.00;44.20;;;;;;5068814;28;20368;-59
2022/01/14 04:51:21;;;;;;;9.50;7.50;;;20.00;44.20;;;;;;5069371;28;20353;-59
2022/01/14 04:53:47;;;;;;;11.38;7.90;;;20.00;44.20;;;;;;5069751;28;20051;-59
2022/01/14 04:56:13;;;;;;;9.48;7.20;;;20.00;44.10;;;;;;5069865;28;43158;-57
2022/01/14 04:58:38;;;;;;;10.20;7.80;;;20.00;44.10;;;;;;5070949;28;20484;-59
2022/01/14 05:01:04;;;;;;;9.23;7.50;;;20.00;44.10;;;;;;5064829;28;20051;-59
2022/01/14 05:03:30;;;;;;;9.80;7.45;;;20.00;44.10;;;;;;5067785;28;20063;-59
2022/01/14 05:05:58;;;;;;;9.05;7.15;;;20.00;44.20;;;;;;5067305;28;20053;-58
2022/01/14 05:08:27;;;;;;;9.30;7.35;;;20.00;44.20;;;;;;5068205;28;20040;-59
2022/01/14 05:13:21;;;;;;;9.00;7.55;;;20.00;44.20;;;;;;5068971;28;20395;-60
2022/01/14 05:15:46;;;;;;;9.27;7.45;;;20.00;44.20;;;;;;5068693;28;20044;-59
2022/01/14 05:18:12;;;;;;;8.52;6.97;;;19.90;44.10;;;;;;5071999;28;20055;-59
2022/01/14 05:20:38;;;;;;;9.52;7.40;;;19.90;44.10;;;;;;5060262;28;20634;-60
2022/01/14 05:23:04;;;;;;;8.95;7.28;;;19.90;44.10;;;;;;5070018;28;20147;-60
2022/01/14 05:25:30;;;;;;;8.73;6.63;;;19.90;44.20;;;;;;5065568;28;40919;-60
2022/01/14 05:27:55;;;;;;;9.23;6.82;;;19.90;44.30;;;;;;5071006;28;20040;-59
2022/01/14 05:30:21;;;;;;;9.45;6.97;;;19.90;44.40;;;;;;5070190;28;20078;-59
2022/01/14 05:32:49;;;;;;;8.88;6.60;;;19.90;44.50;;;;;;5071413;28;20067;-59
2022/01/14 05:35:21;;;;;;;8.13;6.90;;;19.90;44.60;;;;;;5069096;28;20032;-60
2022/01/14 05:37:47;;;;;;;7.57;6.25;;;19.90;44.70;;;;;;5082795;28;20045;-59
2022/01/14 05:40:14;;;;;;;8.73;6.22;;;19.90;44.70;;;;;;5068567;28;37996;-59
2022/01/14 05:42:40;;;;;;;8.73;6.75;;;19.90;44.80;;;;;;5067937;28;20127;-60
2022/01/14 05:45:09;;;;;;;8.75;6.97;;;19.90;44.90;;;;;;5069530;28;20043;-59
2022/01/14 05:47:35;;;;;;;8.18;6.65;;;19.90;44.90;;;;;;5069111;28;20040;-58
2022/01/14 05:50:03;;;;;;;7.72;6.65;;;19.90;45.00;;;;;;5067576;28;20062;-60
2022/01/14 05:52:28;;;;;;;8.25;6.88;;;19.90;45.00;;;;;;5064847;28;45535;-62
2022/01/14 05:54:55;;;;;;;7.32;5.80;;;19.90;45.00;;;;;;5066389;28;20040;-60
2022/01/14 05:57:21;;;;;;;8.25;6.00;;;19.90;45.00;;;;;;5062500;28;20040;-59
2022/01/14 05:59:47;;;;;;;7.05;5.70;;;19.90;45.00;;;;;;5065770;28;20094;-59
2022/01/14 06:02:13;;;;;;;8.80;6.25;;;19.90;45.10;;;;;;5068263;28;20037;-60
2022/01/14 06:04:39;;;;;;;7.90;6.38;;;19.90;45.10;;;;;;5068776;28;20063;-60
2022/01/14 06:07:05;;;;;;;7.38;5.18;;;19.90;45.20;;;;;;5065117;28;37909;-60
2022/01/14 06:09:31;;;;;;;8.68;6.38;;;19.90;45.30;;;;;;5066562;28;20044;-60
2022/01/14 06:11:56;;;;;;;7.18;5.72;;;19.90;45.40;;;;;;5068449;28;20044;-60
2022/01/14 06:14:22;;;;;;;7.20;5.90;;;19.90;45.30;;;;;;5071104;28;20089;-60
2022/01/14 06:16:47;;;;;;;6.88;5.63;;;20.00;45.50;;;;;;5070970;28;20120;-60
2022/01/14 06:19:13;;;;;;;6.18;5.18;;;20.00;45.50;;;;;;5072295;28;20048;-60
2022/01/14 06:21:39;;;;;;;7.63;5.75;;;20.00;45.50;;;;;;5065810;28;20062;-60
2022/01/14 06:24:04;;;;;;;8.63;5.60;;;20.00;45.60;;;;;;5069905;28;20115;-60
2022/01/14 06:26:30;;;;;;;6.88;5.05;;;20.00;45.50;;;;;;5067219;28;20072;-60
2022/01/14 06:28:56;;;;;;;6.50;5.80;;;20.00;45.40;;;;;;5070513;28;20067;-59
2022/01/14 06:31:21;;;;;;;9.63;5.88;;;20.00;45.30;;;;;;5068336;28;20097;-60
2022/01/14 06:33:47;;;;;;;7.72;6.18;;;20.00;45.20;;;;;;5068179;28;20487;-60
2022/01/14 06:36:13;;;;;;;7.97;5.65;;;20.00;45.20;;;;;;5067793;28;20469;-60
2022/01/14 06:38:39;;;;;;;8.43;5.70;;;20.00;45.20;;;;;;5066484;28;20074;-60
2022/01/14 06:41:05;;;;;;;6.55;5.57;;;20.00;45.20;;;;;;5066851;28;43094;-60
2022/01/14 06:43:30;;;;;;;6.65;5.20;;;20.00;45.30;;;;;;5066424;28;20048;-60
2022/01/14 06:45:56;;;;;;;8.02;5.72;;;20.00;45.30;;;;;;5072076;28;20040;-59
2022/01/14 06:48:22;;;;;;;7.38;5.28;;;20.00;45.40;;;;;;5066318;28;20040;-59
2022/01/14 06:50:47;;;;;;;6.97;5.25;;;20.10;45.40;;;;;;5069731;28;20040;-59
2022/01/14 06:53:13;;;;;;;7.53;5.30;;;20.10;45.40;;;;;;5065174;28;20365;-60
2022/01/14 06:55:39;;;;;;;7.50;5.05;;;20.10;45.50;;;;;;5062626;28;38210;-60
2022/01/14 06:58:04;;;;;;;7.63;5.53;;;20.10;45.50;;;;;;5068349;28;20119;-59
2022/01/14 07:00:32;;;;;;;6.90;5.45;;;20.10;45.40;;;;;;5068584;28;20040;-60
2022/01/14 07:02:57;;;;;;;6.75;5.45;;;20.10;45.70;;;;;;5064185;28;20053;-59
2022/01/14 07:05:23;;;;;;;8.40;5.22;;;20.20;45.80;;;;;;5065002;28;20133;-60
2022/01/14 07:07:48;;;;;;;8.75;5.10;;;20.20;45.80;;;;;;5064142;28;45765;-61
2022/01/14 07:10:14;;;;;;;6.70;5.40;;;20.20;45.90;;;;;;5065815;28;20127;-59
2022/01/14 07:12:42;;;;;;;6.68;5.43;;;20.20;46.20;;;;;;5070106;28;20143;-60
2022/01/14 07:15:11;;;;;;;7.28;5.22;;;20.20;46.20;;;;;;5067110;28;20041;-60
2022/01/14 07:17:38;;;;;;;6.15;4.85;;;20.20;46.20;;;;;;5065947;28;20120;-60
2022/01/14 07:20:08;;;;;;;9.95;4.70;;;20.20;46.20;;;;;;5068828;28;20033;-60
2022/01/14 07:22:34;;;;;;;5.43;4.60;;;20.20;46.20;;;;;;5055161;28;47946;-60
2022/01/14 07:25:00;;;;;;;7.65;4.40;;;20.20;46.20;;;;;;5064867;28;21055;-60
2022/01/14 07:27:26;;;;;;;8.00;4.90;;;20.30;46.30;;;;;;5065695;28;20048;-60
2022/01/14 07:29:52;;;;;;;6.72;4.65;;;20.30;46.30;;;;;;5065497;28;20063;-60
2022/01/14 07:32:17;;;;;;;7.80;4.75;;;20.30;46.30;;;;;;5066563;28;20036;-60
2022/01/14 07:34:43;;;;;;;7.10;4.28;;;20.30;46.30;;;;;;5060424;28;20426;-59
2022/01/14 07:37:09;;;;;;;6.35;4.38;;;20.30;46.30;;;;;;5061018;28;40891;-59
2022/01/14 07:39:34;;;;;;;6.68;4.30;;;20.30;46.30;;;;;;5062999;28;20546;-59
2022/01/14 07:42:00;;;;;;;6.20;4.47;;;20.30;46.30;;;;;;5067339;28;20512;-59
2022/01/14 07:44:26;;;;;;;6.95;4.47;;;20.30;46.20;;;;;;5064216;28;20040;-59
2022/01/14 07:46:51;;;;;;;6.47;4.07;;;20.30;46.30;;;;;;5064606;28;20048;-59
2022/01/14 07:49:17;;;;;;;6.68;4.07;;;20.30;46.20;;;;;;5064449;28;20909;-60
2022/01/14 07:51:42;;;;;;;6.63;4.22;;;20.30;46.20;;;;;;5061716;28;45561;-60
2022/01/14 07:54:08;;;;;;;6.50;4.20;;;20.40;46.20;;;;;;5060625;28;20472;-60
2022/01/14 07:56:36;;;;;;;7.35;3.85;;;20.40;46.20;;;;;;5065790;28;20036;-60
2022/01/14 07:59:02;;;;;;;6.80;3.97;;;20.40;46.20;;;;;;5064410;28;20037;-60
2022/01/14 08:01:28;;;;;;;5.90;3.92;;;20.40;46.10;;;;;;5071536;28;20041;-58
2022/01/14 08:03:54;;;;;;;6.32;3.83;;;20.40;46.20;;;;;;5063398;28;39282;-60
2022/01/14 08:06:22;;;;;;;5.03;3.90;;;20.40;46.20;;;;;;5064605;28;21152;-60
2022/01/14 08:08:48;;;;;;;4.38;3.40;;;20.40;46.10;;;;;;5067499;28;20052;-59
2022/01/14 08:11:14;;;;;;;5.40;3.80;;;20.40;46.10;;;;;;5069276;28;20051;-59
2022/01/14 08:13:39;;;;;;;5.65;4.05;;;20.40;46.10;;;;;;5067120;28;20480;-59
2022/01/14 08:16:05;;;;;;;6.43;4.05;;;20.40;46.00;;;;;;5070840;28;20363;-60
2022/01/14 08:18:31;;;;;;;5.45;3.88;;;20.40;46.00;;;;;;5064947;28;45258;-60
2022/01/14 08:20:56;;;;;;;5.68;3.70;;;20.40;46.00;;;;;;5074536;28;20051;-59
2022/01/14 08:23:22;;;;;;;3.72;3.28;;;20.40;46.00;;;;;;5068126;28;20443;-60
2022/01/14 08:25:52;;;;;;;5.18;3.38;;;20.40;46.00;;;;;;5068553;28;20478;-60
2022/01/14 08:28:18;;;;;;;5.20;3.83;;;20.40;46.00;;;;;;5066840;28;20098;-59
2022/01/14 08:30:44;;;;;;;4.85;3.78;;;20.40;46.00;;;;;;5069432;28;20090;-60
2022/01/14 08:33:12;;;;;;;6.68;4.30;;;20.40;46.00;;;;;;5062862;28;42997;-60
2022/01/14 08:35:38;;;;;;;4.63;3.88;;;20.40;45.90;;;;;;5067514;28;20119;-61
2022/01/14 08:38:04;;;;;;;4.93;3.63;;;20.40;45.90;;;;;;5070568;28;20025;-60
2022/01/14 08:40:30;;;;;;;8.35;4.03;;;20.40;45.90;;;;;;5069751;28;20094;-60
2022/01/14 08:42:55;;;;;;;4.30;3.40;;;20.40;45.80;;;;;;5072517;28;20072;-60
2022/01/14 08:45:22;;;;;;;4.65;3.50;;;20.40;45.90;;;;;;5072132;28;20036;-60
2022/01/14 08:47:53;;;;;;;5.85;3.72;;;20.40;45.90;;;;;;5069111;28;37937;-60
2022/01/14 08:50:25;;;;;;;4.85;3.78;;;20.40;45.80;;;;;;5070215;28;20435;-60
2022/01/14 08:52:50;;;;;;;5.57;3.75;;;20.50;45.80;;;;;;5065970;28;20082;-60
2022/01/14 08:55:17;;;;;;;5.30;3.15;;;20.50;45.80;;;;;;5071956;28;20100;-60
2022/01/14 08:57:46;;;;;;;3.92;3.08;;;20.50;45.90;;;;;;5067889;28;20400;-61
2022/01/14 09:00:14;;;;;;;5.93;3.92;;;20.50;45.90;;;;;;5069565;28;38008;-61
2022/01/14 09:02:39;;;;;;;7.65;3.55;;;20.50;45.90;;;;;;5067920;28;20041;-60
2022/01/14 09:05:06;;;;;;;5.50;3.00;;;20.50;46.00;;;;;;5067141;28;20118;-60
2022/01/14 09:07:32;;;;;;;5.68;3.58;;;20.50;46.00;;;;;;5069593;28;20167;-60
2022/01/14 09:09:58;;;;;;;5.97;3.45;;;20.50;46.00;;;;;;5069651;28;20222;-60
2022/01/14 09:12:23;;;;;;;5.57;3.42;;;20.50;46.00;;;;;;5071547;28;20127;-60
2022/01/14 09:14:49;;;;;;;5.53;3.20;;;20.50;46.10;;;;;;5065096;28;40874;-60
2022/01/14 09:17:17;;;;;;;5.43;3.38;;;20.50;46.30;;;;;;5070459;28;20114;-60
2022/01/14 09:19:43;;;;;;;5.68;3.28;;;20.60;46.40;;;;;;5068243;28;20063;-60
2022/01/14 09:22:10;;;;;;;6.20;2.88;;;20.50;46.30;;;;;;5069545;28;20794;-60
2022/01/14 09:24:36;;;;;;;5.50;2.92;;;20.60;46.30;;;;;;5068839;28;20109;-60
2022/01/14 09:27:02;;;;;;;5.47;2.65;;;20.60;46.20;;;;;;5069209;28;20040;-60
2022/01/14 09:29:28;;;;;;;6.40;3.15;;;20.60;46.20;;;;;;5067190;28;40496;-60
2022/01/14 09:31:54;;;;;;;4.20;2.72;;;20.60;46.20;;;;;;5066657;28;20132;-59
2022/01/14 09:34:19;;;;;;;6.30;2.80;;;20.60;46.00;;;;;;5068885;28;20448;-59
2022/01/14 09:36:45;;;;;;;5.47;3.08;;;20.60;46.00;;;;;;5066758;28;20082;-59
2022/01/14 09:39:11;;;;;;;4.45;2.70;;;20.60;46.00;;;;;;5073027;28;20892;-60
2022/01/14 09:41:38;;;;;;;5.75;3.10;;;20.60;45.90;;;;;;5065911;28;20174;-60
2022/01/14 09:44:04;;;;;;;5.05;2.83;;;20.60;45.80;;;;;;5067942;28;45339;-60
2022/01/14 09:46:30;;;;;;;5.15;3.00;;;20.60;45.80;;;;;;5071847;28;20044;-59
2022/01/14 09:48:56;;;;;;;8.32;3.60;;;20.60;45.80;;;;;;5069066;28;20333;-60
2022/01/14 09:51:22;;;;;;;4.82;2.95;;;20.60;45.70;;;;;;5072243;28;20051;-61
2022/01/14 09:53:48;;;;;;;4.68;2.70;;;20.60;45.60;;;;;;5067632;28;20044;-60
2022/01/14 09:56:15;;;;;;;5.05;2.97;;;20.70;45.70;;;;;;5066744;28;43393;-59
2022/01/14 09:58:46;;;;;;;5.78;2.72;;;20.70;45.60;;;;;;5070306;28;20102;-60
2022/01/14 10:01:20;;;;;;;6.10;2.70;;;20.70;45.60;;;;;;5070239;28;20036;-60
2022/01/14 10:04:02;;;;;;;5.25;2.85;;;20.70;45.60;;;;;;5067035;28;20048;-60
2022/01/14 10:06:44;;;;;;;4.03;2.55;;;20.70;45.50;;;;;;5069706;28;20115;-60
2022/01/14 10:09:23;;;;;;;4.32;2.67;;;20.70;45.50;;;;;;5069517;28;20591;-59
2022/01/14 10:12:18;;;;;;;6.10;2.92;;;20.70;45.50;;;;;;5065252;28;43707;-60
2022/01/14 10:15:08;;;;;;;5.07;2.85;;;20.70;45.40;;;;;;5056861;28;20069;-60
2022/01/14 10:17:43;;;;;;;5.15;3.10;;;20.70;45.40;;;;;;5068299;28;20093;-60
2022/01/14 10:20:12;;;;;;;5.28;2.75;;;20.70;45.40;;;;;;5067952;28;20074;-60
2022/01/14 10:22:44;;;;;;;5.45;2.55;;;20.80;45.40;;;;;;5067211;28;20082;-59
2022/01/14 10:25:18;;;;;;;4.40;2.53;;;20.80;45.30;;;;;;5065862;28;38097;-60
2022/01/14 10:27:52;;;;;;;5.50;2.70;;;20.80;45.40;;;;;;5064955;28;20431;-59
2022/01/14 10:30:31;;;;;;;5.85;2.80;;;20.80;45.40;;;;;;5066248;28;20055;-63
2022/01/14 10:33:05;;;;;;;6.43;2.92;;;20.80;45.40;;;;;;5063958;28;20044;-62
2022/01/14 10:35:45;;;;;;;4.75;2.33;;;20.80;45.40;;;;;;5067667;28;20039;-60
2022/01/14 10:38:14;;;;;;;4.07;2.58;;;20.80;45.50;;;;;;5065804;28;20735;-61
2022/01/14 10:40:48;;;;;;;5.03;2.30;;;20.80;45.50;;;;;;5062950;28;45734;-60
2022/01/14 10:43:16;;;;;;;5.10;2.38;;;20.80;45.50;;;;;;5067070;28;20036;-62
2022/01/14 10:45:44;;;;;;;5.82;2.70;;;20.80;45.40;;;;;;5067304;28;20044;-60
2022/01/14 10:48:12;;;;;;;3.97;2.15;;;20.80;45.40;;;;;;5068478;28;20063;-60
2022/01/14 10:50:42;;;;;;;4.85;2.42;;;20.90;45.50;;;;;;5068015;28;20416;-60
2022/01/14 10:53:22;;;;;;;5.97;2.72;;;20.90;45.40;;;;;;5050785;28;45130;-60
2022/01/14 10:55:50;;;;;;;6.70;3.10;;;20.80;45.40;;;;;;5064963;28;20183;-60
2022/01/14 10:58:34;;;;;;;6.53;3.30;;;20.90;45.40;;;;;;5066266;28;20032;-60
2022/01/14 11:01:02;;;;;;;4.90;2.90;;;20.90;45.50;;;;;;5072805;28;20075;-61
2022/01/14 11:03:41;;;;;;;3.20;2.20;;;20.80;45.30;;;;;;5062484;28;20074;-60
2022/01/14 11:06:22;;;;;;;3.63;2.03;;;20.90;45.40;;;;;;5068565;28;20447;-60
2022/01/14 11:08:53;;;;;;;5.93;2.20;;;20.90;46.10;;;;;;5061705;28;41086;-60
2022/01/14 11:11:19;;;;;;;12.00;2.45;;;20.90;45.40;;;;;;5063710;28;20044;-61
2022/01/14 11:13:45;;;;;;;8.02;2.35;;;20.90;45.30;;;;;;5065684;28;20039;-61
2022/01/14 11:16:11;;;;;;;4.55;2.10;;;20.90;45.30;;;;;;5067340;28;20040;-62
2022/01/14 11:18:39;;;;;;;5.93;2.10;;;20.90;45.30;;;;;;5065982;28;20055;-61
2022/01/14 11:23:51;;;;;;;4.80;2.25;;;20.90;45.20;;;;;;5066339;28;20439;-61
2022/01/14 11:26:20;;;;;;;4.45;1.95;;;21.00;45.20;;;;;;5064442;28;20040;-61
2022/01/14 11:28:46;;;;;;;3.78;2.05;;;21.00;45.20;;;;;;5063547;28;20041;-61
2022/01/14 11:31:30;;;;;;;4.78;2.30;;;20.90;45.10;;;;;;5068528;28;20066;-61
2022/01/14 11:33:58;;;;;;;5.53;2.25;;;21.00;45.10;;;;;;5064441;28;20048;-62
2022/01/14 11:36:24;;;;;;;4.93;2.45;;;20.90;45.10;;;;;;5066309;28;43063;-61
2022/01/14 11:38:50;;;;;;;5.82;2.13;;;21.00;45.20;;;;;;5061864;28;20025;-61
2022/01/14 11:41:49;;;;;;;4.47;2.17;;;21.00;45.30;;;;;;5069847;28;20056;-61
2022/01/14 11:45:03;;;;;;;4.50;2.40;;;21.00;45.40;;;;;;5088391;28;20120;-61
2022/01/14 11:47:41;;;;;;;4.50;2.20;;;21.00;45.50;;;;;;5071266;28;20044;-61
2022/01/14 11:50:30;;;;;;;3.40;2.30;;;21.00;45.80;;;;;;5066943;28;43119;-61
2022/01/14 11:52:59;;;;;;;6.30;2.65;;;21.00;45.90;;;;;;5064572;28;20056;-62
2022/01/14 11:55:29;;;;;;;6.50;2.35;;;21.00;46.00;;;;;;5067051;28;20055;-62
2022/01/14 11:57:57;;;;;;;3.50;2.25;;;21.00;46.00;;;;;;5072216;28;20040;-61
2022/01/14 12:00:33;;;;;;;5.38;2.47;;;21.00;46.00;;;;;;5071254;28;20093;-61
2022/01/14 12:03:10;;;;;;;4.18;2.03;;;21.00;46.10;;;;;;5066977;28;45671;-61
2022/01/14 12:05:38;;;;;;;5.35;2.20;;;21.10;46.20;;;;;;5071196;28;20091;-61
2022/01/14 12:08:04;;;;;;;5.18;2.10;;;21.00;46.00;;;;;;5068920;28;20029;-61
2022/01/14 12:10:32;;;;;;;3.47;1.85;;;21.00;46.00;;;;;;5056782;28;20406;-61
2022/01/14 12:13:16;;;;;;;4.90;2.10;;;21.00;46.10;;;;;;5068444;28;20051;-61
2022/01/14 12:15:59;;;;;;;4.60;2.13;;;21.00;46.10;;;;;;5072920;28;20035;-62
2022/01/14 12:19:03;;;;;;;10.25;2.22;;;21.00;46.10;;;;;;5070474;28;30289;-61
2022/01/14 12:21:37;;;;;;;6.15;2.95;;;21.10;46.10;;;;;;5070289;28;20126;-61
2022/01/14 12:24:18;;;;;;;6.72;2.80;;;21.10;46.10;;;;;;5071600;28;20105;-61
2022/01/14 12:26:52;;;;;;;3.73;2.70;;;21.10;46.10;;;;;;5072375;28;20061;-61
2022/01/14 12:29:19;;;;;;;7.00;2.30;;;21.00;45.90;;;;;;5071835;28;20753;-61
2022/01/14 12:32:09;;;;;;;6.07;2.70;;;21.00;45.90;;;;;;5073221;28;43226;-61
2022/01/14 12:34:36;;;;;;;3.93;2.30;;;21.10;45.90;;;;;;5070820;28;20040;-62
2022/01/14 12:37:03;;;;;;;4.18;2.15;;;21.00;45.80;;;;;;5071521;28;20058;-61
2022/01/14 12:39:29;;;;;;;6.18;2.30;;;21.00;45.80;;;;;;5072805;28;20396;-62
2022/01/14 12:41:56;;;;;;;4.75;2.10;;;21.10;45.70;;;;;;5067072;28;20059;-61
2022/01/14 12:44:23;;;;;;;4.55;2.70;;;21.00;45.70;;;;;;5071588;28;20047;-61
2022/01/14 12:47:05;;;;;;;3.00;2.08;;;21.10;45.60;;;;;;5063965;28;42921;-61
2022/01/14 12:49:37;;;;;;;3.65;2.20;;;21.00;45.50;;;;;;5070687;28;20086;-62
2022/01/14 12:52:04;;;;;;;5.15;2.15;;;21.00;45.50;;;;;;5069059;28;20093;-61
2022/01/14 12:54:35;;;;;;;3.50;2.10;;;21.00;45.60;;;;;;5067792;28;20108;-62
2022/01/14 12:57:02;;;;;;;5.85;2.22;;;21.00;45.50;;;;;;5064814;28;20773;-61
2022/01/14 12:59:36;;;;;;;3.40;1.80;;;21.00;45.50;;;;;;5063864;28;45720;-61
2022/01/14 13:02:02;;;;;;;3.38;1.90;;;21.00;45.40;;;;;;5073491;28;20055;-61
2022/01/14 13:04:28;;;;;;;3.67;1.90;;;21.00;45.50;;;;;;5068506;28;20063;-62
2022/01/14 13:06:56;;;;;;;4.97;2.03;;;21.00;45.40;;;;;;5069053;28;20118;-61
2022/01/14 13:09:34;;;;;;;4.05;1.95;;;21.00;45.50;;;;;;5065943;28;20048;-61
2022/01/14 13:12:04;;;;;;;2.63;1.90;;;21.00;45.50;;;;;;5068359;28;20040;-59
2022/01/14 13:14:47;;;;;;;4.70;2.10;;;21.00;45.50;;;;;;5068745;28;45787;-59
2022/01/14 13:17:26;;;;;;;4.03;1.55;;;21.00;45.60;;;;;;5067561;28;20072;-61
2022/01/14 13:19:59;;;;;;;4.20;2.10;;;21.00;45.60;;;;;;5070131;28;20064;-59
2022/01/14 13:22:26;;;;;;;4.88;2.05;;;21.00;45.60;;;;;;5068109;28;20408;-58